createdAt,value
2017-11-17T00:00:18.638Z,7.55
2017-11-17T00:00:59.175Z,7.55
2017-11-17T00:01:39.747Z,7.64
2017-11-17T00:02:20.255Z,7.63
2017-11-17T00:03:00.815Z,7.64
2017-11-17T00:03:41.401Z,7.61
2017-11-17T00:04:21.915Z,7.52
2017-11-17T00:05:02.458Z,7.48
2017-11-17T00:05:42.997Z,7.55
2017-11-17T00:06:23.521Z,7.5
2017-11-17T00:07:04.140Z,7.46
2017-11-17T00:07:44.604Z,7.53
2017-11-17T00:08:25.153Z,7.5
2017-11-17T00:09:05.675Z,7.55
2017-11-17T00:09:46.187Z,7.42
2017-11-17T00:10:26.721Z,7.43
2017-11-17T00:11:07.271Z,7.5
2017-11-17T00:11:47.809Z,7.43
2017-11-17T00:12:28.354Z,7.55
2017-11-17T00:13:08.867Z,7.57
2017-11-17T00:13:49.448Z,7.48
2017-11-17T00:14:30.037Z,7.39
2017-11-17T00:15:10.517Z,7.37
2017-11-17T00:15:51.100Z,7.45
2017-11-17T00:16:31.601Z,7.4
2017-11-17T00:17:12.171Z,7.45
2017-11-17T00:17:52.679Z,7.52
2017-11-17T00:18:33.296Z,7.39
2017-11-17T00:19:13.757Z,7.46
2017-11-17T00:19:54.411Z,7.58
2017-11-17T00:20:34.966Z,7.52
2017-11-17T00:21:15.524Z,7.68
2017-11-17T00:21:56.024Z,7.72
2017-11-17T00:22:36.578Z,7.74
2017-11-17T00:23:17.099Z,7.72
2017-11-17T00:23:57.614Z,7.86
2017-11-17T00:24:38.196Z,7.71
2017-11-17T00:25:18.742Z,7.74
2017-11-17T00:25:59.240Z,7.71
2017-11-17T00:26:39.749Z,7.77
2017-11-17T00:27:20.354Z,7.77
2017-11-17T00:28:00.874Z,7.86
2017-11-17T00:28:41.413Z,7.82
2017-11-17T00:29:21.913Z,7.92
2017-11-17T00:30:02.449Z,7.86
2017-11-17T00:30:42.996Z,7.82
2017-11-17T00:31:23.533Z,7.9
2017-11-17T00:32:04.096Z,7.92
2017-11-17T00:32:44.649Z,7.9
2017-11-17T00:33:25.201Z,7.85
2017-11-17T00:34:05.782Z,7.85
2017-11-17T00:34:46.301Z,7.85
2017-11-17T00:35:26.833Z,7.87
2017-11-17T00:36:07.459Z,7.93
2017-11-17T00:36:47.985Z,7.89
2017-11-17T00:37:28.503Z,7.86
2017-11-17T00:38:09.016Z,7.97
2017-11-17T00:38:49.572Z,7.95
2017-11-17T00:39:30.113Z,8.02
2017-11-17T00:40:10.621Z,8.01
2017-11-17T00:40:51.182Z,8.04
2017-11-17T00:41:31.726Z,8
2017-11-17T00:42:12.236Z,8.07
2017-11-17T00:42:52.783Z,8.05
2017-11-17T00:43:33.323Z,7.9
2017-11-17T00:44:13.824Z,8
2017-11-17T00:44:54.367Z,7.97
2017-11-17T00:45:34.896Z,7.9
2017-11-17T00:46:15.423Z,7.75
2017-11-17T00:46:56.024Z,7.67
2017-11-17T00:47:36.532Z,7.67
2017-11-17T00:48:17.049Z,7.57
2017-11-17T00:48:57.621Z,7.5
2017-11-17T00:49:38.177Z,7.68
2017-11-17T00:50:18.692Z,7.63
2017-11-17T00:50:59.232Z,7.49
2017-11-17T00:51:39.815Z,7.53
2017-11-17T00:52:20.303Z,7.49
2017-11-17T00:53:00.838Z,7.49
2017-11-17T00:53:41.372Z,7.64
2017-11-17T00:54:21.865Z,7.52
2017-11-17T00:55:02.378Z,7.46
2017-11-17T00:55:42.897Z,7.58
2017-11-17T00:56:23.490Z,7.43
2017-11-17T00:57:04.016Z,7.53
2017-11-17T00:57:44.521Z,7.49
2017-11-17T00:58:25.068Z,7.52
2017-11-17T00:59:05.601Z,7.55
2017-11-17T00:59:46.087Z,7.5
2017-11-17T01:00:26.619Z,7.4
2017-11-17T01:01:07.172Z,7.4
2017-11-17T01:01:47.810Z,7.52
2017-11-17T01:02:28.370Z,7.49
2017-11-17T01:03:08.899Z,7.58
2017-11-17T01:03:49.437Z,7.61
2017-11-17T01:04:29.940Z,7.61
2017-11-17T01:05:10.498Z,7.64
2017-11-17T01:05:51.010Z,7.64
2017-11-17T01:06:31.545Z,7.52
2017-11-17T01:07:12.069Z,7.49
2017-11-17T01:07:52.600Z,7.52
2017-11-17T01:08:33.126Z,7.61
2017-11-17T01:09:13.783Z,7.48
2017-11-17T01:09:54.333Z,7.53
2017-11-17T01:10:34.858Z,7.53
2017-11-17T01:11:15.373Z,7.5
2017-11-17T01:11:55.932Z,7.5
2017-11-17T01:12:36.408Z,7.49
2017-11-17T01:13:16.976Z,7.69
2017-11-17T01:13:57.503Z,7.71
2017-11-17T01:14:38.071Z,7.72
2017-11-17T01:15:18.629Z,7.57
2017-11-17T01:15:59.109Z,7.68
2017-11-17T01:16:39.662Z,7.61
2017-11-17T01:17:20.174Z,7.71
2017-11-17T01:18:00.744Z,7.55
2017-11-17T01:18:41.273Z,7.53
2017-11-17T01:19:21.898Z,7.61
2017-11-17T01:20:02.457Z,7.49
2017-11-17T01:20:43.020Z,7.39
2017-11-17T01:21:23.542Z,7.53
2017-11-17T01:22:04.132Z,7.58
2017-11-17T01:22:44.685Z,7.52
2017-11-17T01:23:25.219Z,7.42
2017-11-17T01:24:05.722Z,7.48
2017-11-17T01:24:46.230Z,7.5
2017-11-17T01:25:26.747Z,7.46
2017-11-17T01:26:07.335Z,7.48
2017-11-17T01:26:47.823Z,7.55
2017-11-17T01:27:28.333Z,7.68
2017-11-17T01:28:08.927Z,7.52
2017-11-17T01:28:49.453Z,7.4
2017-11-17T01:29:29.980Z,7.52
2017-11-17T01:30:10.512Z,7.52
2017-11-17T01:30:51.074Z,7.58
2017-11-17T01:31:31.576Z,7.5
2017-11-17T01:32:12.125Z,7.64
2017-11-17T01:32:52.642Z,7.71
2017-11-17T01:33:33.181Z,7.68
2017-11-17T01:34:13.771Z,7.69
2017-11-17T01:34:54.271Z,7.74
2017-11-17T01:35:34.836Z,7.6
2017-11-17T01:36:15.329Z,7.72
2017-11-17T01:36:55.908Z,7.55
2017-11-17T01:37:36.473Z,7.49
2017-11-17T01:38:17.011Z,7.48
2017-11-17T01:38:57.537Z,7.43
2017-11-17T01:39:38.054Z,7.5
2017-11-17T01:40:18.593Z,7.49
2017-11-17T01:40:59.162Z,7.52
2017-11-17T01:41:39.706Z,7.64
2017-11-17T01:42:20.241Z,7.64
2017-11-17T01:43:00.777Z,7.68
2017-11-17T01:43:41.317Z,7.82
2017-11-17T01:44:21.869Z,7.92
2017-11-17T01:45:02.429Z,7.93
2017-11-17T01:45:42.967Z,7.86
2017-11-17T01:46:23.519Z,7.82
2017-11-17T01:47:04.049Z,7.82
2017-11-17T01:47:44.550Z,7.85
2017-11-17T01:48:25.081Z,7.8
2017-11-17T01:49:05.614Z,7.8
2017-11-17T01:49:46.158Z,7.75
2017-11-17T01:50:26.647Z,7.61
2017-11-17T01:51:07.173Z,7.53
2017-11-17T01:51:47.737Z,7.68
2017-11-17T01:52:28.249Z,7.8
2017-11-17T01:53:08.755Z,7.75
2017-11-17T01:53:49.292Z,7.71
2017-11-17T01:54:29.901Z,7.67
2017-11-17T01:55:10.456Z,7.63
2017-11-17T01:55:50.988Z,7.64
2017-11-17T01:56:31.548Z,7.64
2017-11-17T01:57:12.065Z,7.75
2017-11-17T01:57:52.628Z,7.64
2017-11-17T01:58:33.128Z,7.72
2017-11-17T01:59:13.682Z,7.75
2017-11-17T01:59:54.181Z,7.8
2017-11-17T02:00:34.685Z,7.75
2017-11-17T02:01:15.248Z,7.69
2017-11-17T02:01:55.785Z,7.75
2017-11-17T02:02:36.285Z,7.68
2017-11-17T02:03:16.834Z,7.58
2017-11-17T02:03:57.411Z,7.68
2017-11-17T02:04:37.935Z,7.48
2017-11-17T02:05:18.497Z,7.5
2017-11-17T02:05:59.038Z,7.52
2017-11-17T02:06:39.582Z,7.55
2017-11-17T02:07:20.139Z,7.43
2017-11-17T02:08:00.714Z,7.53
2017-11-17T02:08:41.212Z,7.5
2017-11-17T02:09:21.737Z,7.61
2017-11-17T02:10:02.286Z,7.68
2017-11-17T02:10:42.818Z,7.64
2017-11-17T02:11:23.449Z,7.67
2017-11-17T02:12:04.034Z,7.71
2017-11-17T02:12:44.557Z,7.69
2017-11-17T02:13:25.075Z,7.83
2017-11-17T02:14:05.604Z,7.72
2017-11-17T02:14:46.153Z,7.79
2017-11-17T02:15:26.674Z,7.85
2017-11-17T02:16:07.227Z,8
2017-11-17T02:16:47.792Z,7.89
2017-11-17T02:17:28.370Z,7.9
2017-11-17T02:18:08.915Z,7.98
2017-11-17T02:18:49.452Z,7.87
2017-11-17T02:19:30.000Z,7.89
2017-11-17T02:20:10.554Z,7.83
2017-11-17T02:20:51.067Z,7.93
2017-11-17T02:21:31.609Z,7.83
2017-11-17T02:22:12.135Z,7.75
2017-11-17T02:22:52.646Z,7.9
2017-11-17T02:23:33.169Z,7.85
2017-11-17T02:24:13.721Z,7.95
2017-11-17T02:24:54.213Z,7.92
2017-11-17T02:25:34.744Z,7.75
2017-11-17T02:26:15.300Z,7.75
2017-11-17T02:26:55.853Z,7.85
2017-11-17T02:27:36.382Z,7.9
2017-11-17T02:28:16.869Z,7.85
2017-11-17T02:28:57.411Z,7.92
2017-11-17T02:29:37.965Z,7.85
2017-11-17T02:30:18.504Z,7.89
2017-11-17T02:30:59.062Z,7.93
2017-11-17T02:31:39.594Z,7.83
2017-11-17T02:32:20.100Z,7.89
2017-11-17T02:33:00.661Z,7.85
2017-11-17T02:33:41.224Z,7.72
2017-11-17T02:34:21.870Z,7.67
2017-11-17T02:35:02.385Z,7.63
2017-11-17T02:35:42.918Z,7.63
2017-11-17T02:36:23.474Z,7.71
2017-11-17T02:37:04.005Z,7.82
2017-11-17T02:37:44.565Z,7.72
2017-11-17T02:38:25.087Z,7.8
2017-11-17T02:39:05.633Z,7.79
2017-11-17T02:39:46.145Z,7.79
2017-11-17T02:40:26.654Z,7.58
2017-11-17T02:41:07.204Z,7.57
2017-11-17T02:41:47.775Z,7.64
2017-11-17T02:42:28.323Z,7.63
2017-11-17T02:43:08.855Z,7.64
2017-11-17T02:43:49.398Z,7.61
2017-11-17T02:44:29.955Z,7.64
2017-11-17T02:45:10.488Z,7.69
2017-11-17T02:45:51.033Z,7.75
2017-11-17T02:46:31.599Z,7.71
2017-11-17T02:47:12.161Z,7.72
2017-11-17T02:47:52.699Z,7.97
2017-11-17T02:48:33.231Z,7.89
2017-11-17T02:49:13.783Z,7.9
2017-11-17T02:49:54.264Z,7.89
2017-11-17T02:50:34.816Z,7.9
2017-11-17T02:51:15.357Z,8.05
2017-11-17T02:51:55.883Z,8.01
2017-11-17T02:52:36.403Z,7.89
2017-11-17T02:53:16.945Z,8
2017-11-17T02:53:57.504Z,8.04
2017-11-17T02:54:38.097Z,8
2017-11-17T02:55:18.591Z,8.02
2017-11-17T02:55:59.125Z,8.04
2017-11-17T02:56:39.671Z,8.08
2017-11-17T02:57:20.187Z,8.07
2017-11-17T02:58:00.715Z,8.04
2017-11-17T02:58:41.315Z,7.93
2017-11-17T02:59:21.822Z,8.1
2017-11-17T03:00:02.398Z,8.04
2017-11-17T03:00:42.912Z,7.95
2017-11-17T03:01:23.440Z,8.01
2017-11-17T03:02:03.952Z,8.1
2017-11-17T03:02:44.491Z,8.05
2017-11-17T03:03:25.022Z,7.97
2017-11-17T03:04:05.556Z,8.1
2017-11-17T03:04:46.102Z,8.12
2017-11-17T03:05:26.623Z,8.05
2017-11-17T03:06:07.125Z,8.08
2017-11-17T03:06:47.619Z,8.18
2017-11-17T03:07:28.173Z,8.2
2017-11-17T03:08:08.719Z,8.1
2017-11-17T03:08:49.266Z,8.19
2017-11-17T03:09:29.811Z,8
2017-11-17T03:10:10.366Z,8.19
2017-11-17T03:10:50.862Z,8.15
2017-11-17T03:11:31.379Z,8.22
2017-11-17T03:12:11.983Z,8.11
2017-11-17T03:12:52.469Z,8.2
2017-11-17T03:13:32.997Z,8.1
2017-11-17T03:14:13.508Z,8.11
2017-11-17T03:14:54.040Z,8.12
2017-11-17T03:15:34.549Z,8.02
2017-11-17T03:16:15.101Z,8.04
2017-11-17T03:16:55.674Z,8.07
2017-11-17T03:17:36.214Z,8.1
2017-11-17T03:18:16.730Z,8.16
2017-11-17T03:18:57.280Z,8.12
2017-11-17T03:19:37.783Z,8.2
2017-11-17T03:20:18.320Z,8.18
2017-11-17T03:20:58.919Z,8.19
2017-11-17T03:21:39.475Z,8.08
2017-11-17T03:22:19.984Z,8.02
2017-11-17T03:23:00.519Z,8.07
2017-11-17T03:23:41.063Z,8.19
2017-11-17T03:24:21.599Z,8.07
2017-11-17T03:25:02.077Z,8.16
2017-11-17T03:25:42.639Z,8.08
2017-11-17T03:26:23.191Z,8.1
2017-11-17T03:27:03.762Z,8.05
2017-11-17T03:27:44.372Z,8.1
2017-11-17T03:28:25.707Z,8
2017-11-17T03:29:06.284Z,7.95
2017-11-17T03:29:46.826Z,8.04
2017-11-17T03:30:27.389Z,8.01
2017-11-17T03:31:07.938Z,8.05
2017-11-17T03:31:48.404Z,8.07
2017-11-17T03:32:28.958Z,8
2017-11-17T03:33:09.507Z,8.04
2017-11-17T03:33:50.041Z,8.02
2017-11-17T03:34:30.557Z,7.93
2017-11-17T03:35:11.100Z,8.01
2017-11-17T03:35:51.618Z,7.87
2017-11-17T03:36:32.210Z,7.85
2017-11-17T03:37:12.680Z,7.86
2017-11-17T03:37:53.233Z,7.93
2017-11-17T03:38:33.759Z,7.98
2017-11-17T03:39:14.265Z,7.89
2017-11-17T03:39:54.821Z,7.75
2017-11-17T03:40:35.345Z,7.68
2017-11-17T03:41:15.870Z,7.52
2017-11-17T03:41:56.405Z,7.72
2017-11-17T03:42:36.897Z,7.92
2017-11-17T03:43:17.481Z,7.9
2017-11-17T03:43:57.971Z,7.89
2017-11-17T03:44:38.510Z,8.01
2017-11-17T03:45:19.029Z,7.87
2017-11-17T03:45:59.563Z,7.89
2017-11-17T03:46:40.102Z,8.04
2017-11-17T03:47:20.622Z,8.07
2017-11-17T03:48:01.175Z,8.02
2017-11-17T03:48:41.678Z,8.05
2017-11-17T03:49:22.209Z,8.05
2017-11-17T03:50:02.720Z,8.05
2017-11-17T03:50:43.288Z,8.05
2017-11-17T03:51:23.818Z,8.22
2017-11-17T03:52:04.336Z,8.07
2017-11-17T03:52:44.901Z,8.12
2017-11-17T03:53:25.448Z,8.16
2017-11-17T03:54:05.961Z,8.2
2017-11-17T03:54:46.489Z,8.23
2017-11-17T03:55:27.046Z,8.12
2017-11-17T03:56:07.557Z,8.07
2017-11-17T03:56:48.083Z,8.05
2017-11-17T03:57:28.610Z,8.08
2017-11-17T03:58:09.125Z,8.08
2017-11-17T03:58:49.702Z,8.05
2017-11-17T03:59:30.284Z,8.15
2017-11-17T04:00:10.776Z,8.05
2017-11-17T04:00:51.305Z,8.08
2017-11-17T04:01:31.846Z,8.08
2017-11-17T04:02:12.352Z,8.1
2017-11-17T04:02:52.893Z,7.95
2017-11-17T04:03:33.416Z,7.87
2017-11-17T04:04:13.951Z,7.92
2017-11-17T04:04:54.515Z,7.8
2017-11-17T04:05:35.048Z,7.82
2017-11-17T04:06:15.592Z,7.83
2017-11-17T04:06:56.194Z,7.64
2017-11-17T04:07:36.753Z,7.79
2017-11-17T04:08:17.262Z,7.77
2017-11-17T04:08:57.840Z,7.71
2017-11-17T04:09:38.331Z,7.67
2017-11-17T04:10:18.924Z,7.69
2017-11-17T04:10:59.589Z,7.64
2017-11-17T04:11:40.135Z,7.58
2017-11-17T04:12:20.677Z,7.55
2017-11-17T04:13:01.211Z,7.53
2017-11-17T04:13:41.777Z,7.48
2017-11-17T04:14:22.280Z,7.58
2017-11-17T04:15:02.801Z,7.68
2017-11-17T04:15:43.331Z,7.55
2017-11-17T04:16:23.858Z,7.49
2017-11-17T04:17:04.387Z,7.46
2017-11-17T04:17:44.931Z,7.52
2017-11-17T04:18:25.485Z,7.61
2017-11-17T04:19:06.017Z,7.69
2017-11-17T04:19:46.551Z,7.5
2017-11-17T04:20:27.105Z,7.61
2017-11-17T04:21:07.632Z,7.39
2017-11-17T04:21:48.156Z,7.49
2017-11-17T04:22:28.678Z,7.52
2017-11-17T04:23:09.254Z,7.45
2017-11-17T04:23:49.820Z,7.39
2017-11-17T04:24:30.315Z,7.39
2017-11-17T04:25:10.865Z,7.42
2017-11-17T04:25:51.393Z,7.53
2017-11-17T04:26:31.928Z,7.49
2017-11-17T04:27:12.457Z,7.69
2017-11-17T04:27:53.001Z,7.8
2017-11-17T04:28:33.520Z,7.67
2017-11-17T04:29:14.035Z,7.72
2017-11-17T04:29:54.600Z,7.68
2017-11-17T04:30:35.109Z,7.75
2017-11-17T04:31:15.653Z,7.8
2017-11-17T04:31:56.158Z,7.74
2017-11-17T04:32:36.669Z,7.77
2017-11-17T04:33:17.297Z,7.74
2017-11-17T04:33:57.801Z,7.79
2017-11-17T04:34:38.332Z,7.64
2017-11-17T04:35:18.849Z,7.37
2017-11-17T04:35:59.429Z,7.49
2017-11-17T04:36:39.903Z,7.5
2017-11-17T04:37:20.453Z,7.45
2017-11-17T04:38:00.986Z,7.42
2017-11-17T04:38:41.508Z,7.25
2017-11-17T04:39:22.055Z,7.34
2017-11-17T04:40:02.551Z,7.34
2017-11-17T04:40:43.062Z,7.4
2017-11-17T04:41:23.589Z,7.52
2017-11-17T04:42:04.108Z,7.52
2017-11-17T04:42:44.632Z,7.52
2017-11-17T04:43:25.177Z,7.63
2017-11-17T04:44:05.752Z,7.39
2017-11-17T04:44:46.295Z,7.48
2017-11-17T04:45:26.768Z,7.32
2017-11-17T04:46:07.302Z,7.32
2017-11-17T04:46:47.867Z,7.32
2017-11-17T04:47:28.417Z,7.32
2017-11-17T04:48:08.967Z,7.32
2017-11-17T04:48:49.558Z,7.31
2017-11-17T04:49:30.099Z,7.4
2017-11-17T04:50:10.652Z,7.5
2017-11-17T04:50:51.186Z,7.52
2017-11-17T04:51:31.748Z,7.52
2017-11-17T04:52:12.261Z,7.55
2017-11-17T04:52:52.813Z,7.53
2017-11-17T04:53:33.340Z,7.43
2017-11-17T04:54:13.901Z,7.39
2017-11-17T04:54:54.400Z,7.39
2017-11-17T04:55:34.965Z,7.48
2017-11-17T04:56:15.564Z,7.5
2017-11-17T04:56:56.073Z,7.3
2017-11-17T04:57:36.692Z,7.28
2017-11-17T04:58:17.146Z,7.37
2017-11-17T04:58:57.749Z,7.52
2017-11-17T04:59:38.303Z,7.42
2017-11-17T05:00:18.887Z,7.39
2017-11-17T05:00:59.366Z,7.42
2017-11-17T05:01:39.891Z,7.45
2017-11-17T05:02:20.455Z,7.37
2017-11-17T05:03:00.958Z,7.4
2017-11-17T05:03:41.470Z,7.42
2017-11-17T05:04:22.001Z,7.58
2017-11-17T05:05:02.501Z,7.42
2017-11-17T05:05:43.103Z,7.55
2017-11-17T05:06:23.713Z,7.48
2017-11-17T05:07:04.227Z,7.4
2017-11-17T05:07:44.761Z,7.4
2017-11-17T05:08:25.303Z,7.46
2017-11-17T05:09:05.836Z,7.42
2017-11-17T05:09:46.359Z,7.48
2017-11-17T05:10:26.912Z,7.53
2017-11-17T05:11:07.645Z,7.53
2017-11-17T05:11:48.178Z,7.52
2017-11-17T05:12:28.732Z,7.67
2017-11-17T05:13:09.265Z,7.61
2017-11-17T05:13:49.892Z,7.63
2017-11-17T05:14:30.394Z,7.57
2017-11-17T05:15:10.893Z,7.39
2017-11-17T05:15:51.451Z,7.43
2017-11-17T05:16:31.995Z,7.42
2017-11-17T05:17:12.537Z,7.55
2017-11-17T05:17:53.044Z,7.46
2017-11-17T05:18:33.609Z,7.45
2017-11-17T05:19:14.155Z,7.57
2017-11-17T05:19:54.719Z,7.53
2017-11-17T05:20:35.242Z,7.61
2017-11-17T05:21:15.759Z,7.63
2017-11-17T05:21:56.396Z,7.71
2017-11-17T05:22:36.982Z,7.77
2017-11-17T05:23:17.531Z,7.72
2017-11-17T05:23:58.008Z,7.64
2017-11-17T05:24:38.559Z,7.68
2017-11-17T05:25:19.098Z,7.55
2017-11-17T05:25:59.628Z,7.67
2017-11-17T05:26:40.207Z,7.72
2017-11-17T05:27:20.756Z,7.68
2017-11-17T05:28:01.252Z,7.79
2017-11-17T05:28:42.250Z,7.71
2017-11-17T05:29:23.354Z,7.72
2017-11-17T05:30:03.879Z,7.82
2017-11-17T05:30:44.394Z,7.92
2017-11-17T05:31:24.977Z,7.85
2017-11-17T05:32:05.499Z,7.85
2017-11-17T05:32:46.146Z,8.04
2017-11-17T05:33:26.874Z,7.87
2017-11-17T05:34:07.455Z,8.05
2017-11-17T05:34:47.955Z,8
2017-11-17T05:35:28.464Z,7.93
2017-11-17T05:36:08.965Z,8.01
2017-11-17T05:36:49.527Z,8.04
2017-11-17T05:37:30.152Z,7.98
2017-11-17T05:38:10.648Z,7.97
2017-11-17T05:38:51.249Z,8.05
2017-11-17T05:39:31.808Z,8.07
2017-11-17T05:40:12.340Z,8.12
2017-11-17T05:40:52.843Z,8.18
2017-11-17T05:41:33.390Z,8.08
2017-11-17T05:42:14.015Z,8.12
2017-11-17T05:42:54.535Z,8.07
2017-11-17T05:43:35.184Z,8.11
2017-11-17T05:44:16.591Z,8.04
2017-11-17T05:44:57.140Z,8.05
2017-11-17T05:45:37.649Z,7.97
2017-11-17T05:46:18.167Z,7.8
2017-11-17T05:46:58.698Z,7.69
2017-11-17T05:47:39.254Z,7.67
2017-11-17T05:48:19.819Z,7.82
2017-11-17T05:49:00.428Z,7.83
2017-11-17T05:49:40.965Z,8
2017-11-17T05:50:21.504Z,7.89
2017-11-17T05:51:02.055Z,7.71
2017-11-17T05:51:42.561Z,7.71
2017-11-17T05:52:23.129Z,7.86
2017-11-17T05:53:03.679Z,7.92
2017-11-17T05:53:44.206Z,7.93
2017-11-17T05:54:24.746Z,7.98
2017-11-17T05:55:05.305Z,7.92
2017-11-17T05:55:45.845Z,7.9
2017-11-17T05:56:26.397Z,7.95
2017-11-17T05:57:06.973Z,8
2017-11-17T05:57:47.500Z,7.87
2017-11-17T05:58:28.013Z,7.89
2017-11-17T05:59:08.557Z,8
2017-11-17T05:59:49.112Z,7.98
2017-11-17T06:00:29.605Z,8.02
2017-11-17T06:01:10.132Z,7.93
2017-11-17T06:01:50.687Z,8.02
2017-11-17T06:02:31.276Z,7.97
2017-11-17T06:03:11.789Z,7.92
2017-11-17T06:03:52.382Z,7.93
2017-11-17T06:04:32.862Z,8.02
2017-11-17T06:05:13.378Z,8.08
2017-11-17T06:05:53.928Z,8.12
2017-11-17T06:06:34.648Z,7.97
2017-11-17T06:07:15.276Z,7.9
2017-11-17T06:07:55.765Z,8.04
2017-11-17T06:08:36.353Z,8.05
2017-11-17T06:09:16.884Z,8.01
2017-11-17T06:09:57.432Z,7.98
2017-11-17T06:10:37.959Z,8.01
2017-11-17T06:11:18.483Z,7.97
2017-11-17T06:11:59.058Z,7.93
2017-11-17T06:12:39.592Z,7.86
2017-11-17T06:13:20.097Z,7.93
2017-11-17T06:14:00.647Z,7.93
2017-11-17T06:14:41.214Z,7.89
2017-11-17T06:15:21.750Z,7.87
2017-11-17T06:16:02.289Z,7.85
2017-11-17T06:16:42.811Z,7.89
2017-11-17T06:17:23.319Z,7.79
2017-11-17T06:18:03.917Z,7.68
2017-11-17T06:18:44.499Z,7.72
2017-11-17T06:19:25.081Z,7.75
2017-11-17T06:20:05.911Z,7.67
2017-11-17T06:20:46.465Z,7.68
2017-11-17T06:21:27.002Z,7.68
2017-11-17T06:22:07.513Z,7.63
2017-11-17T06:22:48.151Z,7.71
2017-11-17T06:23:28.649Z,7.5
2017-11-17T06:24:09.193Z,7.52
2017-11-17T06:24:49.720Z,7.52
2017-11-17T06:25:30.248Z,7.45
2017-11-17T06:26:10.771Z,7.5
2017-11-17T06:26:51.321Z,7.42
2017-11-17T06:27:31.838Z,7.52
2017-11-17T06:28:12.410Z,7.53
2017-11-17T06:28:53.029Z,7.64
2017-11-17T06:29:33.494Z,7.64
2017-11-17T06:30:14.064Z,7.52
2017-11-17T06:30:54.633Z,7.49
2017-11-17T06:31:35.188Z,7.49
2017-11-17T06:32:15.680Z,7.48
2017-11-17T06:32:56.221Z,7.53
2017-11-17T06:33:36.797Z,7.55
2017-11-17T06:34:17.326Z,7.64
2017-11-17T06:34:57.848Z,7.64
2017-11-17T06:35:38.597Z,7.5
2017-11-17T06:36:19.141Z,7.5
2017-11-17T06:36:59.699Z,7.42
2017-11-17T06:39:13.448Z,7.28
2017-11-17T06:39:54.002Z,7.45
2017-11-17T06:40:34.490Z,7.37
2017-11-17T06:41:15.085Z,7.35
2017-11-17T06:41:55.633Z,7.52
2017-11-17T06:42:36.226Z,7.61
2017-11-17T06:43:16.781Z,7.74
2017-11-17T06:43:57.293Z,7.86
2017-11-17T06:44:37.919Z,7.8
2017-11-17T06:45:18.410Z,7.93
2017-11-17T06:45:58.933Z,7.95
2017-11-17T06:46:39.486Z,7.89
2017-11-17T06:47:20.011Z,8.07
2017-11-17T06:48:00.568Z,8.01
2017-11-17T06:48:41.119Z,8.04
2017-11-17T06:49:21.697Z,8.1
2017-11-17T06:50:02.291Z,8.04
2017-11-17T06:50:42.818Z,8.15
2017-11-17T06:51:23.339Z,8.15
2017-11-17T06:52:03.919Z,8.18
2017-11-17T06:52:44.558Z,8.1
2017-11-17T06:53:25.074Z,8.05
2017-11-17T06:54:05.645Z,8.16
2017-11-17T06:54:46.246Z,8.08
2017-11-17T06:55:26.954Z,8.07
2017-11-17T06:56:07.474Z,8.02
2017-11-17T06:56:48.111Z,8.1
2017-11-17T06:57:28.549Z,8.15
2017-11-17T06:58:09.199Z,8.26
2017-11-17T06:58:51.270Z,8.28
2017-11-17T06:59:32.118Z,8.28
2017-11-17T07:00:12.938Z,8.12
2017-11-17T07:00:54.657Z,8.1
2017-11-17T07:01:35.184Z,8.19
2017-11-17T07:02:15.721Z,8.19
2017-11-17T07:02:56.335Z,8.25
2017-11-17T07:03:37.334Z,8.29
2017-11-17T07:04:18.158Z,8.08
2017-11-17T07:05:02.862Z,8.12
2017-11-17T07:05:46.480Z,8.28
2017-11-17T07:06:30.941Z,8.28
2017-11-17T07:35:51.291Z,8.1
2017-11-17T07:36:32.569Z,8.19
2017-11-17T07:37:13.219Z,8.45
2017-11-17T07:37:53.954Z,8.3
2017-11-17T07:38:34.282Z,8.33
2017-11-17T07:39:14.975Z,8.33
2017-11-17T07:39:55.670Z,8.34
2017-11-17T07:40:36.242Z,8.45
2017-11-17T07:41:16.929Z,8.87
2017-11-17T07:41:57.495Z,8.98
2017-11-17T07:42:38.373Z,9.38
2017-11-17T07:43:18.904Z,9.5
2017-11-17T07:43:59.426Z,9.38
2017-11-17T07:44:40.008Z,8.99
2017-11-17T07:45:20.716Z,8.87
2017-11-17T07:46:01.352Z,8.74
2017-11-17T07:46:41.914Z,8.47
2017-11-17T07:47:22.434Z,8.63
2017-11-17T07:48:03.023Z,8.63
2017-11-17T07:48:43.702Z,8.61
2017-11-17T07:49:24.120Z,8.83
2017-11-17T07:50:04.714Z,8.91
2017-11-17T07:50:46.419Z,8.7
2017-11-17T07:51:28.107Z,8.79
2017-11-17T07:52:08.680Z,9.28
2017-11-17T07:52:49.435Z,8.84
2017-11-17T07:53:30.111Z,8.84
2017-11-17T07:54:10.640Z,9.43
2017-11-17T07:54:51.443Z,9.57
2017-11-17T07:55:33.104Z,9.48
2017-11-17T07:56:13.728Z,9.28
2017-11-17T07:56:54.194Z,9.14
2017-11-17T07:57:35.449Z,9.04
2017-11-17T07:58:15.914Z,8.98
2017-11-17T07:58:57.175Z,8.68
2017-11-17T07:59:37.979Z,8.77
2017-11-17T08:00:21.126Z,8.63
2017-11-17T08:01:02.176Z,8.56
2017-11-17T08:01:42.560Z,8.76
2017-11-17T08:02:23.100Z,8.76
2017-11-17T08:03:03.758Z,8.63
2017-11-17T08:03:44.881Z,8.71
2017-11-17T08:04:25.717Z,8.73
2017-11-17T08:05:06.466Z,8.71
2017-11-17T08:05:47.183Z,8.66
2017-11-17T08:06:27.793Z,8.68
2017-11-17T08:07:08.364Z,8.61
2017-11-17T08:07:48.894Z,8.53
2017-11-17T08:08:32.270Z,8.58
2017-11-17T08:09:12.325Z,8.45
2017-11-17T08:09:52.935Z,8.41
2017-11-17T08:10:40.378Z,8.36
2017-11-17T08:11:21.004Z,8.43
2017-11-17T08:12:02.445Z,8.47
2017-11-17T08:12:43.014Z,8.28
2017-11-17T08:13:23.523Z,8.38
2017-11-17T08:14:04.165Z,8.43
2017-11-17T08:14:44.660Z,8.59
2017-11-17T08:15:25.221Z,8.59
2017-11-17T08:16:05.785Z,8.62
2017-11-17T08:16:46.340Z,8.56
2017-11-17T08:17:26.886Z,8.7
2017-11-17T08:18:07.723Z,8.65
2017-11-17T08:18:48.287Z,8.65
2017-11-17T08:19:28.875Z,8.52
2017-11-17T08:20:09.398Z,8.62
2017-11-17T08:20:49.942Z,8.43
2017-11-17T08:21:30.465Z,8.81
2017-11-17T08:22:11.058Z,9.36
2017-11-17T08:22:51.995Z,9.54
2017-11-17T08:23:32.703Z,9.5
2017-11-17T08:24:13.351Z,9.5
2017-11-17T08:24:54.146Z,9.08
2017-11-17T08:25:34.427Z,9.1
2017-11-17T08:26:15.129Z,9.28
2017-11-17T08:26:55.727Z,9.43
2017-11-17T08:27:36.298Z,9.43
2017-11-17T08:28:18.376Z,9.39
2017-11-17T08:28:59.221Z,9.17
2017-11-17T08:29:39.743Z,9.08
2017-11-17T08:30:20.359Z,9.11
2017-11-17T08:31:00.831Z,9.11
2017-11-17T08:31:41.417Z,9.14
2017-11-17T08:32:21.940Z,9.29
2017-11-17T08:33:02.776Z,9.23
2017-11-17T08:33:43.537Z,9.4
2017-11-17T08:34:24.443Z,9.69
2017-11-17T08:35:05.050Z,9.72
2017-11-17T08:35:45.646Z,9.76
2017-11-17T08:36:26.200Z,9.5
2017-11-17T08:37:06.749Z,9.58
2017-11-17T08:37:47.537Z,9.61
2017-11-17T08:38:28.587Z,9.78
2017-11-17T08:39:09.309Z,10.02
2017-11-17T08:39:49.987Z,9.96
2017-11-17T08:40:30.557Z,9.89
2017-11-17T08:41:11.157Z,9.86
2017-11-17T08:41:51.858Z,9.54
2017-11-17T08:42:32.390Z,9.5
2017-11-17T08:43:13.050Z,9.24
2017-11-17T08:43:53.596Z,9.11
2017-11-17T08:44:34.496Z,9.13
2017-11-17T08:45:15.069Z,9.28
2017-11-17T08:45:55.653Z,9.36
2017-11-17T08:46:36.205Z,9.71
2017-11-17T08:47:16.851Z,10.02
2017-11-17T08:47:57.412Z,10.33
2017-11-17T08:48:39.411Z,10.17
2017-11-17T08:49:19.927Z,9.97
2017-11-17T08:50:01.088Z,9.76
2017-11-17T08:50:42.187Z,9.66
2017-11-17T08:51:23.025Z,9.38
2017-11-17T08:52:03.421Z,9.15
2017-11-17T08:52:43.974Z,9.14
2017-11-17T08:53:24.595Z,9.15
2017-11-17T08:54:05.700Z,9.14
2017-11-17T08:54:46.349Z,9.17
2017-11-17T08:55:26.937Z,8.94
2017-11-17T08:56:08.251Z,8.86
2017-11-17T08:56:49.096Z,8.91
2017-11-17T08:57:30.119Z,8.96
2017-11-17T08:58:11.347Z,9.1
2017-11-17T08:58:52.595Z,9.1
2017-11-17T08:59:33.492Z,9.04
2017-11-17T09:00:14.519Z,9.17
2017-11-17T09:00:55.197Z,9.18
2017-11-17T09:01:36.258Z,9.15
2017-11-17T09:02:17.389Z,9.13
2017-11-17T09:02:58.224Z,9.18
2017-11-17T09:03:38.917Z,9.13
2017-11-17T09:04:19.346Z,8.94
2017-11-17T09:04:59.869Z,8.91
2017-11-17T09:05:40.646Z,8.89
2017-11-17T09:06:21.129Z,8.87
2017-11-17T09:07:01.796Z,8.95
2017-11-17T09:07:43.323Z,9.1
2017-11-17T09:08:24.339Z,9.17
2017-11-17T09:09:04.989Z,9.23
2017-11-17T09:09:47.376Z,9.28
2017-11-17T09:10:30.135Z,9.26
2017-11-17T09:11:10.811Z,9.46
2017-11-17T09:11:51.285Z,9.5
2017-11-17T09:12:32.282Z,9.5
2017-11-17T09:13:13.105Z,9.51
2017-11-17T09:13:53.904Z,9.5
2017-11-17T09:14:34.390Z,9.43
2017-11-17T09:21:12.195Z,10.01
2017-11-17T09:22:01.196Z,9.83
2017-11-17T09:22:49.342Z,9.75
2017-11-17T09:23:38.667Z,9.72
2017-11-17T09:24:20.929Z,9.64
2017-11-17T09:25:01.490Z,9.68
2017-11-17T09:25:42.042Z,9.65
2017-11-17T09:26:22.546Z,9.65
2017-11-17T09:27:03.136Z,9.72
2017-11-17T09:29:07.960Z,9.69
2017-11-17T09:29:48.474Z,9.71
2017-11-17T09:30:29.119Z,9.96
2017-11-17T09:31:09.632Z,9.99
2017-11-17T09:31:52.535Z,9.94
2017-11-17T09:32:30.847Z,9.86
2017-11-17T09:33:11.387Z,9.84
2017-11-17T09:33:52.018Z,9.81
2017-11-17T09:34:32.598Z,9.79
2017-11-17T09:35:13.220Z,9.53
2017-11-17T09:35:53.745Z,9.48
2017-11-17T09:36:34.253Z,9.48
2017-11-17T09:37:14.869Z,9.51
2017-11-17T09:37:55.690Z,9.6
2017-11-17T09:38:36.387Z,9.61
2017-11-17T09:39:17.165Z,9.69
2017-11-17T09:39:57.543Z,9.72
2017-11-17T09:40:38.671Z,9.78
2017-11-17T09:41:19.350Z,9.74